Time;durP1;ratioP1;P1;durP2;ratioP2;P2;SDS_P1;SDS_P2;PMS_P1;PMS_P2;Temp;Humidity;BMP_temperature;BMP_pressure;BME280_temperature;BME280_humidity;BME280_pressure;Samples;Min_cycle;Max_cycle;Signal;HPM_P1;HPM_P2
2022/12/31 00:00:37;;;;;;;5.28;4.68;;;;;;;11.02;100.00;100143.94;1271014;23;20426;-86
2022/12/31 00:01:10;;;;;;;7.10;5.07;;;;;;;11.07;100.00;100141.38;1259172;23;20285;-86
2022/12/31 00:01:43;;;;;;;6.50;4.60;;;;;;;11.05;100.00;100137.34;1258691;23;20277;-87
2022/12/31 00:02:14;;;;;;;6.15;4.82;;;;;;;11.06;100.00;100138.94;1264942;23;20657;-87
2022/12/31 00:02:46;;;;;;;9.50;4.50;;;;;;;11.04;100.00;100146.38;1271049;23;20281;-87
2022/12/31 00:03:18;;;;;;;6.30;5.13;;;;;;;11.04;100.00;100149.03;1261136;23;20600;-87
2022/12/31 00:03:50;;;;;;;8.60;5.72;;;;;;;11.04;100.00;100143.72;1271027;23;20725;-87
2022/12/31 00:04:22;;;;;;;4.50;4.10;;;;;;;11.03;100.00;100145.56;1277183;23;20276;-87
2022/12/31 00:04:53;;;;;;;3.95;3.65;;;;;;;11.03;100.00;100150.88;1279307;23;20398;-87
2022/12/31 00:05:25;;;;;;;4.22;3.92;;;;;;;11.02;100.00;100143.13;1270677;23;20277;-87
2022/12/31 00:05:57;;;;;;;5.78;3.55;;;;;;;11.07;100.00;100143.22;1265301;23;20261;-87
2022/12/31 00:06:33;;;;;;;3.80;3.45;;;;;;;11.08;100.00;100147.50;1265006;23;20277;-87
2022/12/31 00:07:06;;;;;;;5.00;3.40;;;;;;;11.11;100.00;100136.38;1264795;23;20385;-87
2022/12/31 00:07:38;;;;;;;5.78;3.83;;;;;;;11.11;100.00;100141.72;1270915;23;20276;-86
2022/12/31 00:08:09;;;;;;;4.35;3.78;;;;;;;11.13;100.00;100140.41;1277471;23;20248;-87
2022/12/31 00:08:41;;;;;;;4.90;3.90;;;;;;;11.14;100.00;100146.56;1273278;23;20018;-87
2022/12/31 00:09:12;;;;;;;5.70;3.80;;;;;;;11.14;100.00;100136.72;1258874;23;20477;-87
2022/12/31 00:09:44;;;;;;;3.97;3.40;;;;;;;11.19;100.00;100143.19;1258677;23;20674;-87
2022/12/31 00:10:16;;;;;;;4.35;3.85;;;;;;;11.17;100.00;100140.75;1261007;23;20258;-87
2022/12/31 00:10:47;;;;;;;4.53;4.03;;;;;;;11.26;100.00;100144.69;1261025;23;20456;-86
2022/12/31 00:11:20;;;;;;;3.40;3.10;;;;;;;11.23;100.00;100134.50;1259819;23;20361;-86
2022/12/31 00:11:51;;;;;;;4.88;3.83;;;;;;;11.20;100.00;100145.59;1261819;23;20300;-87
2022/12/31 00:12:24;;;;;;;3.72;3.45;;;;;;;11.26;100.00;100144.69;1258877;23;20344;-86
2022/12/31 00:12:55;;;;;;;4.57;4.07;;;;;;;11.21;100.00;100141.91;1262159;23;20254;-86
2022/12/31 00:13:27;;;;;;;4.32;3.92;;;;;;;11.20;100.00;100134.94;1258877;23;20420;-86
2022/12/31 00:13:59;;;;;;;4.68;3.88;;;;;;;11.15;100.00;100145.50;1265026;23;20277;-87
2022/12/31 00:14:30;;;;;;;3.72;3.42;;;;;;;11.12;100.00;100141.47;1267417;23;20306;-87
2022/12/31 00:15:02;;;;;;;7.50;3.60;;;;;;;11.21;100.00;100147.22;1265473;23;20737;-87
2022/12/31 00:15:34;;;;;;;6.78;4.10;;;;;;;11.18;100.00;100142.38;1267778;23;20316;-88
2022/12/31 00:16:14;;;;;;;4.45;4.05;;;;;;;11.27;100.00;100134.81;1262521;23;20321;-86
2022/12/31 00:16:46;;;;;;;4.15;3.70;;;;;;;11.27;100.00;100137.50;1265362;23;20742;-87
2022/12/31 00:17:18;;;;;;;4.90;3.38;;;;;;;11.26;100.00;100147.34;1267129;23;20328;-86
2022/12/31 00:17:49;;;;;;;5.65;3.00;;;;;;;11.25;100.00;100136.94;1267251;23;20647;-87
2022/12/31 00:18:21;;;;;;;3.97;3.22;;;;;;;11.28;100.00;100131.94;1265198;23;20270;-86
2022/12/31 00:18:58;;;;;;;3.20;3.00;;;;;;;11.29;100.00;100133.53;1258976;23;20262;-86
2022/12/31 00:19:29;;;;;;;4.45;4.07;;;;;;;11.25;100.00;100137.72;1264935;23;20273;-87
2022/12/31 00:20:01;;;;;;;3.70;3.42;;;;;;;11.24;100.00;100135.31;1258285;23;20761;-87
2022/12/31 00:20:33;;;;;;;3.40;3.10;;;;;;;11.20;100.00;100145.59;1265115;23;20292;-87
2022/12/31 00:21:06;;;;;;;3.45;3.15;;;;;;;11.18;100.00;100131.72;1258596;23;20274;-86
2022/12/31 00:21:38;;;;;;;3.22;2.90;;;;;;;11.30;100.00;100129.81;1267254;23;20257;-86
2022/12/31 00:22:10;;;;;;;3.47;3.08;;;;;;;11.24;100.00;100136.13;1267138;23;20273;-87
2022/12/31 00:22:41;;;;;;;3.83;3.53;;;;;;;11.24;100.00;100141.44;1260201;23;20258;-87
2022/12/31 00:23:13;;;;;;;4.22;3.17;;;;;;;11.21;100.00;100130.44;1260449;23;20743;-87
2022/12/31 00:23:45;;;;;;;3.63;2.90;;;;;;;11.25;100.00;100142.25;1258837;23;20365;-87
2022/12/31 00:24:16;;;;;;;4.38;3.10;;;;;;;11.23;100.00;100131.84;1265302;23;20639;-87
2022/12/31 00:24:48;;;;;;;3.60;3.28;;;;;;;11.25;100.00;100143.06;1273134;23;20275;-87
2022/12/31 00:25:19;;;;;;;4.40;3.80;;;;;;;11.21;100.00;100141.91;1271089;23;20355;-86
2022/12/31 00:25:54;;;;;;;3.25;2.97;;;;;;;11.21;100.00;100136.56;1259001;23;20270;-87
2022/12/31 00:26:28;;;;;;;3.50;3.20;;;;;;;11.18;100.00;100129.03;1265024;23;20277;-85
2022/12/31 00:26:59;;;;;;;2.97;2.78;;;;;;;11.24;100.00;100136.13;1273174;23;20713;-86
2022/12/31 00:27:31;;;;;;;6.82;3.67;;;;;;;11.23;100.00;100145.16;1266968;23;20647;-86
2022/12/31 00:28:04;;;;;;;3.50;2.90;;;;;;;11.29;100.00;100138.06;1259177;23;20726;-86
2022/12/31 00:28:36;;;;;;;3.42;3.00;;;;;;;11.25;100.00;100137.72;1273021;23;20260;-86
2022/12/31 00:29:09;;;;;;;3.50;3.20;;;;;;;11.21;100.00;100139.22;1271284;23;20720;-87
2022/12/31 00:29:40;;;;;;;3.40;3.20;;;;;;;11.18;100.00;100153.03;1266989;23;20254;-86
2022/12/31 00:30:12;;;;;;;3.53;3.22;;;;;;;11.24;100.00;100146.78;1265110;23;20288;-86
2022/12/31 00:30:44;;;;;;;4.65;3.10;;;;;;;11.29;100.00;100138.88;1271259;23;20583;-87
2022/12/31 00:31:19;;;;;;;3.53;3.22;;;;;;;11.30;100.00;100145.81;1271284;23;20269;-86
2022/12/31 00:31:51;;;;;;;3.92;3.53;;;;;;;11.33;100.00;100145.34;1267177;23;20353;-86
2022/12/31 00:32:22;;;;;;;6.93;3.28;;;;;;;11.40;100.00;100134.53;1266444;23;20781;-86
2022/12/31 00:32:54;;;;;;;3.17;2.88;;;;;;;11.41;100.00;100131.63;1265156;23;20276;-86
2022/12/31 00:33:25;;;;;;;3.10;2.90;;;;;;;11.36;100.00;100123.53;1258823;23;20269;-86
2022/12/31 00:33:58;;;;;;;3.78;3.47;;;;;;;11.38;100.00;100142.78;1264875;23;20277;-86
2022/12/31 00:34:29;;;;;;;3.70;3.40;;;;;;;11.36;100.00;100128.88;1271201;23;20629;-86
2022/12/31 00:35:01;;;;;;;5.10;3.13;;;;;;;11.38;100.00;100126.78;1272955;23;20297;-86
2022/12/31 00:35:35;;;;;;;4.47;2.90;;;;;;;11.35;100.00;100143.25;1273704;23;20288;-86
2022/12/31 00:36:28;;;;;;;3.63;2.28;;;;;;;11.33;100.00;100134.69;1272247;23;20257;-85
2022/12/31 00:36:59;;;;;;;2.63;2.42;;;;;;;11.44;100.00;100125.81;1265450;23;20642;-86
2022/12/31 00:37:31;;;;;;;2.28;2.10;;;;;;;11.38;100.00;100129.44;1260588;23;20718;-86
2022/12/31 00:38:03;;;;;;;2.40;2.20;;;;;;;11.41;100.00;100126.28;1265009;23;20277;-86
2022/12/31 00:38:35;;;;;;;2.75;2.55;;;;;;;11.40;100.00;100129.19;1265216;23;20284;-86
2022/12/31 00:39:07;;;;;;;2.92;2.63;;;;;;;11.43;100.00;100129.53;1267170;23;20253;-85
2022/12/31 00:39:39;;;;;;;2.67;2.47;;;;;;;11.43;100.00;100116.19;1258666;23;20971;-85
2022/12/31 00:40:11;;;;;;;2.70;2.50;;;;;;;11.43;100.00;100123.38;1267319;23;20567;-86
2022/12/31 00:40:42;;;;;;;2.88;2.60;;;;;;;11.46;100.00;100139.72;1267283;23;20388;-85
2022/12/31 00:41:14;;;;;;;2.75;2.47;;;;;;;11.44;100.00;100133.81;1270739;23;20737;-85
2022/12/31 00:41:46;;;;;;;3.00;2.80;;;;;;;11.44;100.00;100128.47;1271360;23;20297;-86
2022/12/31 00:42:17;;;;;;;3.33;2.50;;;;;;;11.42;100.00;100141.25;1264822;23;20277;-85
2022/12/31 00:42:49;;;;;;;6.03;2.70;;;;;;;11.43;100.00;100124.19;1261216;23;20277;-86
2022/12/31 00:43:21;;;;;;;2.70;2.50;;;;;;;11.42;100.00;100135.91;1265264;23;20277;-86
2022/12/31 00:43:53;;;;;;;2.00;1.80;;;;;;;11.41;100.00;100139.63;1266553;23;20261;-87
2022/12/31 00:44:24;;;;;;;2.97;2.10;;;;;;;11.43;100.00;100134.03;1259018;23;20266;-86
2022/12/31 00:44:56;;;;;;;2.03;1.92;;;;;;;11.40;100.00;100155.84;1264752;23;20594;-87
2022/12/31 00:45:27;;;;;;;1.88;1.77;;;;;;;11.38;100.00;100144.63;1271138;23;20272;-86
2022/12/31 00:45:59;;;;;;;2.08;1.35;;;;;;;11.39;100.00;100139.06;1271046;23;20601;-87
2022/12/31 00:46:31;;;;;;;2.33;1.50;;;;;;;11.44;100.00;100136.47;1271156;23;20265;-86
2022/12/31 00:47:02;;;;;;;1.20;1.10;;;;;;;11.42;100.00;100159.91;1264933;23;20281;-86
2022/12/31 00:47:34;;;;;;;1.42;1.20;;;;;;;11.42;100.00;100151.91;1270688;23;20753;-86
2022/12/31 00:48:06;;;;;;;1.30;1.20;;;;;;;11.39;100.00;100147.06;1265201;23;20283;-86
2022/12/31 00:48:38;;;;;;;1.30;1.20;;;;;;;11.38;100.00;100160.63;1260910;23;20302;-86
2022/12/31 00:49:09;;;;;;;1.20;1.10;;;;;;;11.38;100.00;100158.75;1267079;23;20264;-87
2022/12/31 00:49:41;;;;;;;2.53;1.90;;;;;;;11.39;100.00;100155.06;1265167;23;20627;-87
2022/12/31 00:50:16;;;;;;;2.00;1.05;;;;;;;11.41;100.00;100157.47;1261537;23;20695;-86
2022/12/31 00:50:48;;;;;;;3.45;1.10;;;;;;;11.43;100.00;100150.03;1269932;23;20737;-86
2022/12/31 00:51:22;;;;;;;1.23;1.13;;;;;;;11.43;100.00;100156.19;1266047;23;20269;-87
2022/12/31 00:51:53;;;;;;;1.15;0.90;;;;;;;11.36;100.00;100155.53;1265456;23;20836;-86
2022/12/31 00:52:25;;;;;;;1.05;0.98;;;;;;;11.36;100.00;100160.88;1258374;23;20301;-87
2022/12/31 00:52:56;;;;;;;0.95;0.80;;;;;;;11.35;100.00;100167.25;1271134;23;20287;-87
2022/12/31 00:53:28;;;;;;;0.93;0.88;;;;;;;11.39;100.00;100160.38;1277458;23;20268;-86
2022/12/31 00:54:00;;;;;;;0.95;0.90;;;;;;;11.29;100.00;100168.19;1264833;23;20301;-86
2022/12/31 00:54:32;;;;;;;3.17;0.98;;;;;;;11.34;100.00;100167.47;1261370;23;20313;-86
2022/12/31 00:55:04;;;;;;;0.90;0.88;;;;;;;11.33;100.00;100155.19;1271103;23;20261;-86
2022/12/31 00:55:36;;;;;;;0.70;0.70;;;;;;;11.37;100.00;100159.81;1267256;23;20285;-85
2022/12/31 00:56:18;;;;;;;2.15;0.85;;;;;;;11.37;100.00;100167.81;1264376;23;20527;-86
2022/12/31 00:56:49;;;;;;;0.80;0.80;;;;;;;11.41;100.00;100152.94;1263848;23;20394;-87
2022/12/31 00:57:21;;;;;;;0.95;0.75;;;;;;;11.33;100.00;100164.00;1265153;23;20351;-87
2022/12/31 00:57:52;;;;;;;2.38;0.80;;;;;;;11.33;100.00;100158.69;1264920;23;20823;-87
2022/12/31 00:58:24;;;;;;;1.30;0.90;;;;;;;11.31;100.00;100157.28;1264804;23;20277;-87
2022/12/31 00:58:56;;;;;;;0.82;0.70;;;;;;;11.36;100.00;100168.06;1265014;23;20273;-87
2022/12/31 00:59:28;;;;;;;0.70;0.60;;;;;;;11.29;100.00;100154.88;1265180;23;20348;-87
2022/12/31 00:59:59;;;;;;;0.75;0.70;;;;;;;11.25;100.00;100161.72;1264730;23;20404;-87
2022/12/31 01:00:31;;;;;;;1.05;0.70;;;;;;;11.27;100.00;100151.63;1265426;23;20337;-86
2022/12/31 01:01:22;;;;;;;2.58;0.75;;;;;;;11.29;100.00;100160.19;1271047;23;20752;-87
2022/12/31 01:01:54;;;;;;;0.50;0.50;;;;;;;11.25;100.00;100167.06;1264862;23;20284;-87
2022/12/31 01:02:26;;;;;;;0.73;0.55;;;;;;;11.23;100.00;100154.97;1260410;23;20264;-86
2022/12/31 01:02:57;;;;;;;0.60;0.55;;;;;;;11.24;100.00;100164.63;1265244;23;20277;-87
2022/12/31 01:03:29;;;;;;;1.00;0.70;;;;;;;11.25;100.00;100168.91;1258692;23;20302;-86
2022/12/31 01:04:10;;;;;;;0.50;0.50;;;;;;;11.23;100.00;100166.50;1265094;23;20280;-87
2022/12/31 01:04:43;;;;;;;0.60;0.60;;;;;;;11.23;100.00;100166.50;1264956;23;20265;-86
2022/12/31 01:05:15;;;;;;;0.60;0.60;;;;;;;11.19;100.00;100175.97;1253017;23;20467;-87
2022/12/31 01:05:46;;;;;;;0.85;0.50;;;;;;;11.22;100.00;100167.50;1267089;23;20258;-87
2022/12/31 01:06:18;;;;;;;0.75;0.75;;;;;;;11.19;100.00;100170.66;1258729;23;20348;-87
2022/12/31 01:06:50;;;;;;;0.85;0.70;;;;;;;11.17;100.00;100172.75;1267440;23;20622;-87
2022/12/31 01:07:21;;;;;;;0.60;0.60;;;;;;;11.18;100.00;100174.34;1260828;23;20266;-87
2022/12/31 01:07:53;;;;;;;0.45;0.45;;;;;;;11.16;100.00;100171.13;1259145;23;20274;-87
2022/12/31 01:08:24;;;;;;;2.08;0.47;;;;;;;11.18;100.00;100169.03;1261381;23;20259;-87
2022/12/31 01:08:56;;;;;;;1.00;0.73;;;;;;;11.19;100.00;100167.97;1258931;23;20270;-87
2022/12/31 01:09:28;;;;;;;1.33;0.75;;;;;;;11.18;100.00;100174.34;1264954;23;20383;-88
2022/12/31 01:09:59;;;;;;;0.65;0.65;;;;;;;11.13;100.00;100172.41;1265049;23;20816;-87
2022/12/31 01:11:32;;;;;;;1.15;0.50;;;;;;;11.09;100.00;100181.13;1265129;23;20277;-87
2022/12/31 01:11:32;;;;;;;0.57;0.40;;;;;;;11.10;100.00;100172.06;1252767;23;20376;-88
2022/12/31 01:12:04;;;;;;;0.70;0.40;;;;;;;11.10;100.00;100177.41;1261588;23;20262;-88
2022/12/31 01:12:35;;;;;;;0.70;0.50;;;;;;;11.15;100.00;100170.31;1267720;23;20254;-88
2022/12/31 01:13:07;;;;;;;0.30;0.30;;;;;;;11.11;100.00;100169.16;1259772;23;20270;-88
2022/12/31 01:13:39;;;;;;;0.40;0.40;;;;;;;11.11;100.00;100163.03;1257959;23;20652;-88
2022/12/31 01:14:13;;;;;;;1.10;0.50;;;;;;;11.09;100.00;100162.47;1259194;23;20270;-87
2022/12/31 01:14:45;;;;;;;0.50;0.50;;;;;;;11.07;100.00;100168.03;1258931;23;20277;-88
2022/12/31 01:15:17;;;;;;;1.35;0.40;;;;;;;11.04;100.00;100162.38;1262060;23;20259;-88
2022/12/31 01:15:48;;;;;;;1.48;0.40;;;;;;;11.10;100.00;100167.56;1265365;23;20276;-88
2022/12/31 01:16:23;;;;;;;0.47;0.47;;;;;;;11.11;100.00;100168.34;1266976;23;20280;-88
2022/12/31 01:16:54;;;;;;;0.85;0.52;;;;;;;11.09;100.00;100167.78;1265052;23;20273;-87
2022/12/31 01:17:26;;;;;;;0.30;0.30;;;;;;;11.11;100.00;100165.69;1258893;23;20327;-87
2022/12/31 01:17:57;;;;;;;1.15;0.35;;;;;;;11.10;100.00;100166.75;1259148;23;20648;-87
2022/12/31 01:18:29;;;;;;;1.40;0.40;;;;;;;11.03;100.00;100166.88;1264934;23;20418;-87
2022/12/31 01:19:03;;;;;;;0.80;0.30;;;;;;;11.06;100.00;100173.59;1266978;23;20332;-87
2022/12/31 01:19:34;;;;;;;3.30;1.20;;;;;;;11.03;100.00;100177.53;1271413;23;20780;-87
2022/12/31 01:20:06;;;;;;;2.45;0.57;;;;;;;11.04;100.00;100179.16;1258776;23;20285;-87
2022/12/31 01:20:41;;;;;;;0.28;0.28;;;;;;;11.03;100.00;100184.72;1258963;23;20724;-87
2022/12/31 01:21:13;;;;;;;0.60;0.35;;;;;;;11.02;100.00;100191.91;1253175;23;20481;-87
2022/12/31 01:21:46;;;;;;;1.25;0.50;;;;;;;11.01;100.00;100184.97;1253306;23;20267;-87
2022/12/31 01:22:17;;;;;;;0.90;0.40;;;;;;;11.00;100.00;100183.34;1258880;23;20766;-87
2022/12/31 01:22:49;;;;;;;0.38;0.38;;;;;;;11.03;100.00;100195.38;1258891;23;20277;-87
2022/12/31 01:23:20;;;;;;;2.05;0.50;;;;;;;11.00;100.00;100186.00;1253281;23;20346;-87
2022/12/31 01:23:52;;;;;;;0.95;0.40;;;;;;;10.99;100.00;100186.25;1252928;23;20815;-87
2022/12/31 01:24:24;;;;;;;0.60;0.35;;;;;;;10.97;100.00;100188.34;1267277;23;20544;-87
2022/12/31 01:24:55;;;;;;;0.30;0.30;;;;;;;11.01;100.00;100190.28;1252628;23;20289;-87
2022/12/31 01:25:27;;;;;;;0.95;0.60;;;;;;;11.02;100.00;100180.44;1258956;23;20325;-87
2022/12/31 01:26:07;;;;;;;2.15;0.50;;;;;;;10.99;100.00;100189.72;1270824;23;20260;-87
2022/12/31 01:26:39;;;;;;;3.15;0.40;;;;;;;10.98;100.00;100195.28;1275760;23;20330;-87
2022/12/31 01:27:10;;;;;;;2.22;0.30;;;;;;;10.99;100.00;100196.91;1269590;23;20014;-87
2022/12/31 01:27:42;;;;;;;0.40;0.40;;;;;;;10.96;100.00;100200.84;1263288;23;20265;-87
2022/12/31 01:28:13;;;;;;;1.10;0.38;;;;;;;10.95;100.00;100193.06;1266966;23;20595;-87
2022/12/31 01:28:45;;;;;;;0.40;0.40;;;;;;;10.98;100.00;100188.09;1267272;23;20258;-87
2022/12/31 01:29:17;;;;;;;0.85;0.30;;;;;;;10.99;100.00;100191.56;1262138;23;20254;-87
2022/12/31 01:29:48;;;;;;;1.13;0.60;;;;;;;10.95;100.00;100190.41;1259492;23;20262;-87
2022/12/31 01:30:20;;;;;;;0.52;0.40;;;;;;;10.93;100.00;100197.81;1261355;23;20310;-86
2022/12/31 01:30:55;;;;;;;0.40;0.40;;;;;;;10.97;100.00;100199.00;1264983;23;20282;-87
2022/12/31 01:31:27;;;;;;;0.30;0.30;;;;;;;10.97;100.00;100191.00;1266780;23;20363;-86
2022/12/31 01:31:58;;;;;;;1.17;0.55;;;;;;;10.96;100.00;100192.84;1258989;23;20267;-87
2022/12/31 01:32:30;;;;;;;3.15;1.85;;;;;;;10.92;100.00;100191.69;1258871;23;20274;-86
2022/12/31 01:33:02;;;;;;;0.25;0.25;;;;;;;10.92;100.00;100193.53;1258885;23;20647;-87
2022/12/31 01:33:34;;;;;;;0.20;0.20;;;;;;;10.94;100.00;100194.09;1261062;23;20257;-86
2022/12/31 01:34:07;;;;;;;1.48;0.40;;;;;;;10.98;100.00;100200.63;1252336;23;20366;-87
2022/12/31 01:34:38;;;;;;;2.30;0.47;;;;;;;10.96;100.00;100202.72;1253545;23;20342;-87
2022/12/31 01:35:10;;;;;;;1.05;0.68;;;;;;;10.95;100.00;100199.19;1261848;23;20262;-87
2022/12/31 01:35:41;;;;;;;0.90;0.73;;;;;;;10.92;100.00;100198.88;1270959;23;20346;-86
2022/12/31 01:36:15;;;;;;;0.45;0.30;;;;;;;10.91;100.00;100210.56;1270735;23;20276;-87
2022/12/31 01:36:55;;;;;;;1.25;0.50;;;;;;;10.97;100.00;100201.66;1259055;23;20685;-87
2022/12/31 01:37:27;;;;;;;1.50;0.43;;;;;;;10.96;100.00;100208.03;1266777;23;20257;-87
2022/12/31 01:37:58;;;;;;;1.17;0.35;;;;;;;10.90;100.00;100209.75;1271253;23;20653;-86
2022/12/31 01:38:30;;;;;;;0.77;0.70;;;;;;;10.91;100.00;100205.25;1264270;23;20327;-86
2022/12/31 01:39:04;;;;;;;1.60;0.40;;;;;;;10.91;100.00;100206.03;1252734;23;20354;-87
2022/12/31 01:39:35;;;;;;;0.55;0.55;;;;;;;10.91;100.00;100207.91;1261254;23;20258;-86
2022/12/31 01:40:07;;;;;;;1.15;0.30;;;;;;;10.92;100.00;100204.19;1265109;23;20273;-87
2022/12/31 01:40:39;;;;;;;0.40;0.40;;;;;;;10.90;100.00;100206.28;1277195;23;20296;-87
2022/12/31 01:41:13;;;;;;;0.40;0.40;;;;;;;10.90;100.00;100196.44;1270952;23;20265;-86
2022/12/31 01:41:46;;;;;;;0.30;0.30;;;;;;;10.93;100.00;100200.47;1273532;23;20246;-87
2022/12/31 01:42:18;;;;;;;0.75;0.75;;;;;;;10.93;100.00;100197.81;1266971;23;20301;-87
2022/12/31 01:42:56;;;;;;;0.50;0.50;;;;;;;10.86;100.00;100197.94;1264673;23;20277;-87
2022/12/31 01:43:54;;;;;;;0.50;0.50;;;;;;;10.89;100.00;100194.00;1267036;23;20249;-86
2022/12/31 01:44:26;;;;;;;1.65;0.38;;;;;;;10.87;100.00;100193.44;1267818;23;20268;-87
2022/12/31 01:44:57;;;;;;;0.40;0.40;;;;;;;10.88;100.00;100201.19;1264942;23;20293;-87
2022/12/31 01:45:29;;;;;;;0.35;0.35;;;;;;;10.82;100.00;100197.59;1260940;23;20254;-87
2022/12/31 01:46:01;;;;;;;1.17;0.43;;;;;;;10.89;100.00;100204.66;1260945;23;20293;-87
2022/12/31 01:46:44;;;;;;;0.40;0.35;;;;;;;10.88;100.00;100200.38;1265105;23;20273;-87
2022/12/31 01:47:21;;;;;;;0.55;0.45;;;;;;;10.83;100.00;100203.75;1267039;23;20261;-88
2022/12/31 01:47:56;;;;;;;0.47;0.43;;;;;;;10.83;100.00;100199.22;1270670;23;20284;-87
2022/12/31 01:48:28;;;;;;;0.60;0.60;;;;;;;10.86;100.00;100205.13;1266304;23;20254;-87
2022/12/31 01:49:03;;;;;;;1.00;0.45;;;;;;;10.84;100.00;100197.38;1259189;23;20285;-87
2022/12/31 01:49:52;;;;;;;0.40;0.40;;;;;;;10.84;100.00;100195.53;1261610;23;20610;-87
2022/12/31 01:50:28;;;;;;;1.42;0.50;;;;;;;10.83;100.00;100195.75;1259147;23;20281;-87
2022/12/31 01:50:59;;;;;;;0.60;0.60;;;;;;;10.79;100.00;100198.06;1271174;23;20264;-88
2022/12/31 01:51:33;;;;;;;1.52;1.15;;;;;;;10.77;100.00;100192.19;1261472;23;20623;-87
2022/12/31 01:52:26;;;;;;;0.60;0.60;;;;;;;10.79;100.00;100200.75;1255679;23;20607;-87
2022/12/31 01:53:01;;;;;;;0.40;0.40;;;;;;;10.79;100.00;100197.28;1265644;23;20750;-87
2022/12/31 01:53:32;;;;;;;0.50;0.40;;;;;;;10.76;100.00;100195.06;1265477;23;20277;-88
2022/12/31 01:54:06;;;;;;;0.80;0.35;;;;;;;10.74;100.00;100195.31;1259271;23;20262;-87
2022/12/31 01:54:49;;;;;;;0.30;0.30;;;;;;;10.78;100.00;100196.47;1259417;23;20365;-87
2022/12/31 01:55:25;;;;;;;4.93;0.52;;;;;;;10.77;100.00;100194.84;1258453;23;20262;-88
2022/12/31 01:55:58;;;;;;;1.60;0.40;;;;;;;10.75;100.00;100202.25;1253607;23;20270;-87
2022/12/31 01:56:31;;;;;;;0.75;0.47;;;;;;;10.72;100.00;100199.25;1258849;23;20297;-87
2022/12/31 01:57:04;;;;;;;0.63;0.60;;;;;;;10.73;100.00;100193.69;1259314;23;20368;-88
2022/12/31 01:57:36;;;;;;;0.38;0.38;;;;;;;10.75;100.00;100190.78;1259523;23;20281;-87
2022/12/31 01:58:14;;;;;;;0.38;0.38;;;;;;;10.74;100.00;100192.66;1261273;23;20255;-87
2022/12/31 01:58:49;;;;;;;0.85;0.40;;;;;;;10.72;100.00;100186.75;1261551;23;20769;-87
2022/12/31 01:59:22;;;;;;;0.68;0.68;;;;;;;10.72;100.00;100185.94;1265182;23;20363;-87
2022/12/31 01:59:54;;;;;;;0.85;0.40;;;;;;;10.73;100.00;100192.88;1259435;23;20754;-87
2022/12/31 02:00:26;;;;;;;2.47;0.50;;;;;;;10.71;100.00;100192.31;1259148;23;20314;-87
2022/12/31 02:00:57;;;;;;;0.40;0.40;;;;;;;10.70;100.00;100188.84;1273533;23;20256;-87
2022/12/31 02:01:31;;;;;;;0.30;0.30;;;;;;;10.68;100.00;100190.91;1267381;23;20741;-87
2022/12/31 02:02:03;;;;;;;0.45;0.45;;;;;;;10.65;100.00;100191.34;1265581;23;20443;-87
2022/12/31 02:02:37;;;;;;;0.52;0.50;;;;;;;10.66;100.00;100190.31;1261147;23;20258;-87
2022/12/31 02:03:10;;;;;;;1.15;0.50;;;;;;;10.67;100.00;100194.59;1267253;23;20254;-87
2022/12/31 02:03:41;;;;;;;1.85;1.13;;;;;;;10.66;100.00;100192.16;1277353;23;20359;-88
2022/12/31 02:04:14;;;;;;;0.60;0.50;;;;;;;10.65;100.00;100188.69;1271095;23;20288;-87
2022/12/31 02:04:46;;;;;;;2.38;0.40;;;;;;;10.63;100.00;100190.78;1265291;23;20269;-87
2022/12/31 02:05:59;;;;;;;0.40;0.30;;;;;;;10.65;100.00;100195.88;1267419;23;20610;-87
2022/12/31 02:06:41;;;;;;;0.38;0.38;;;;;;;10.63;100.00;100193.44;1273878;23;20351;-88
2022/12/31 02:07:13;;;;;;;3.50;0.52;;;;;;;10.64;100.00;100184.41;1282358;23;20782;-87
2022/12/31 02:07:46;;;;;;;2.97;0.60;;;;;;;10.63;100.00;100193.44;1271569;23;20273;-88
2022/12/31 02:08:18;;;;;;;0.50;0.43;;;;;;;10.65;100.00;100194.03;1265332;23;20363;-87
2022/12/31 02:08:50;;;;;;;0.45;0.45;;;;;;;10.69;100.00;100184.53;1265282;23;20651;-87
2022/12/31 02:09:22;;;;;;;1.52;0.55;;;;;;;10.66;100.00;100187.66;1265125;23;20273;-88
2022/12/31 02:09:53;;;;;;;0.40;0.40;;;;;;;10.63;100.00;100190.78;1267518;23;20305;-88
2022/12/31 02:10:25;;;;;;;0.30;0.30;;;;;;;10.59;100.00;100197.63;1262087;23;20254;-87
2022/12/31 02:10:56;;;;;;;0.75;0.75;;;;;;;10.62;100.00;100199.00;1265511;23;20311;-87
2022/12/31 02:11:31;;;;;;;0.60;0.60;;;;;;;10.60;100.00;100193.91;1265495;23;20297;-88
2022/12/31 02:12:05;;;;;;;0.30;0.30;;;;;;;10.61;100.00;100195.53;1271169;23;20674;-88
2022/12/31 02:12:36;;;;;;;0.55;0.45;;;;;;;10.61;100.00;100194.72;1259158;23;20277;-88
2022/12/31 02:13:08;;;;;;;2.40;0.63;;;;;;;10.59;100.00;100191.47;1261606;23;20344;-88
2022/12/31 02:13:40;;;;;;;0.50;0.40;;;;;;;10.58;100.00;100198.66;1259255;23;20293;-88
2022/12/31 02:14:15;;;;;;;2.33;0.50;;;;;;;10.58;100.00;100201.31;1271339;23;20272;-87
2022/12/31 02:14:49;;;;;;;0.52;0.52;;;;;;;10.60;100.00;100196.56;1265157;23;20305;-88
2022/12/31 02:15:30;;;;;;;1.33;0.43;;;;;;;10.65;100.00;100203.88;1271407;23;20279;-88
2022/12/31 02:16:09;;;;;;;1.92;0.50;;;;;;;10.61;100.00;100206.19;1273264;23;20277;-88
2022/12/31 02:17:02;;;;;;;1.20;1.08;;;;;;;10.60;100.00;100203.75;1277570;23;20025;-88
2022/12/31 02:17:49;;;;;;;1.27;0.60;;;;;;;10.59;100.00;100202.94;1279632;23;20685;-88
2022/12/31 02:18:36;;;;;;;1.45;0.47;;;;;;;10.63;100.00;100195.28;1274998;23;20304;-88
2022/12/31 02:19:46;;;;;;;0.85;0.40;;;;;;;10.56;100.00;100198.09;1279764;23;20256;-87
2022/12/31 02:20:25;;;;;;;3.83;1.13;;;;;;;10.57;100.00;100204.22;1282242;23;20774;-87
2022/12/31 02:21:28;;;;;;;1.00;0.63;;;;;;;10.61;100.00;100205.38;1275128;23;20357;-87
2022/12/31 02:22:50;;;;;;;0.35;0.30;;;;;;;10.54;100.00;100202.84;1271241;23;20272;-87
2022/12/31 02:23:49;;;;;;;0.40;0.40;;;;;;;10.52;100.00;100196.94;1267124;23;20258;-87
2022/12/31 02:25:00;;;;;;;0.82;0.43;;;;;;;10.60;100.00;100209.88;1276635;23;20537;-87
2022/12/31 02:25:37;;;;;;;1.75;0.50;;;;;;;10.51;100.00;100204.09;1283101;23;20267;-87
2022/12/31 02:26:17;;;;;;;0.55;0.50;;;;;;;10.50;100.00;100207.00;1282644;23;20252;-87
2022/12/31 02:27:38;;;;;;;0.55;0.50;;;;;;;10.64;100.00;100211.03;1277003;23;20339;-87
2022/12/31 02:28:15;;;;;;;0.57;0.50;;;;;;;10.61;100.00;100206.19;1261177;23;20022;-87
2022/12/31 02:29:09;;;;;;;1.17;0.85;;;;;;;10.53;100.00;100209.19;1266174;23;20359;-87
2022/12/31 02:29:47;;;;;;;1.67;0.60;;;;;;;10.55;100.00;100215.09;1277506;23;20260;-87
2022/12/31 02:30:21;;;;;;;0.47;0.47;;;;;;;10.53;100.00;100217.19;1271328;23;20272;-87
2022/12/31 02:31:01;;;;;;;2.45;0.57;;;;;;;10.47;100.00;100212.78;1259283;23;20270;-87
2022/12/31 02:31:44;;;;;;;0.98;0.47;;;;;;;10.51;100.00;100211.28;1264729;23;20273;-87
2022/12/31 02:32:20;;;;;;;0.88;0.50;;;;;;;10.51;100.00;100211.28;1271344;23;20605;-87
2022/12/31 02:33:11;;;;;;;0.40;0.40;;;;;;;10.47;100.00;100226.91;1273420;23;20260;-87
2022/12/31 02:33:53;;;;;;;0.45;0.45;;;;;;;10.48;100.00;100223.22;1265119;23;20277;-87
2022/12/31 02:34:34;;;;;;;1.38;0.50;;;;;;;10.48;100.00;100222.41;1271251;23;20277;-87
2022/12/31 02:35:40;;;;;;;0.50;0.50;;;;;;;10.43;100.00;100216.97;1259059;23;20274;-87
2022/12/31 02:36:18;;;;;;;0.73;0.60;;;;;;;10.51;100.00;100219.28;1279669;23;20252;-86
2022/12/31 02:36:51;;;;;;;0.65;0.60;;;;;;;10.50;100.00;100215.00;1275941;23;20838;-86
2022/12/31 02:37:24;;;;;;;0.38;0.38;;;;;;;10.49;100.00;100224.03;1273707;23;20379;-86
2022/12/31 02:38:03;;;;;;;0.90;0.70;;;;;;;10.47;100.00;100215.47;1264368;23;20265;-86
2022/12/31 02:38:39;;;;;;;2.03;0.60;;;;;;;10.47;100.00;100220.78;1267426;23;20373;-86
2022/12/31 02:39:11;;;;;;;0.50;0.50;;;;;;;10.46;100.00;100230.63;1264806;23;20276;-86
2022/12/31 02:39:43;;;;;;;0.70;0.35;;;;;;;10.47;100.00;100223.44;1265106;23;20277;-86
2022/12/31 02:40:18;;;;;;;0.40;0.40;;;;;;;10.48;100.00;100225.06;1265055;23;20804;-86